This is the latest recevied weather packets stored in our database for station/object DM0MR. If no packets are shown the sender has not sent any weather packets the latest 10 day(s).
| Time | Temp. | Humidity | Pressure | Rain* | Wind** | Luminosity | Snow |
|---|---|---|---|---|---|---|---|
| 1777451188 | 13.33° C | 45% | 1017.6 hPa | 0 mm | - | - | - |
| 1777449387 | 12.22° C | 42% | 1017.3 hPa | 0 mm | - | - | - |
| 1777446687 | 16.11° C | 36% | 1017 hPa | 0 mm | - | - | - |
| 1777444886 | 13.33° C | 38% | 1016.9 hPa | 0 mm | - | - | - |
| 1777443987 | 12.22° C | 43% | 1016.7 hPa | 0 mm | - | - | - |
| 1777443087 | 12.22° C | 44% | 1016.6 hPa | 0 mm | - | - | - |
| 1777442187 | 10.56° C | 50% | 1016.5 hPa | 0 mm | - | - | - |
| 1777441288 | 8.89° C | 52% | 1016.3 hPa | 0 mm | - | - | - |
| 1777440389 | 8.33° C | 55% | 1016.1 hPa | 0 mm | - | - | - |
| 1777438587 | 5.56° C | 62% | 1015.7 hPa | 0 mm | - | - | - |
| 1777437688 | 5.56° C | 62% | 1015.8 hPa | 0 mm | - | - | - |
| 1777436787 | 5.56° C | 61% | 1015.7 hPa | 0 mm | - | - | - |
| 1777435886 | 5.56° C | 60% | 1015.7 hPa | 0 mm | - | - | - |
| 1777434987 | 5.56° C | 59% | 1015.6 hPa | 0 mm | - | - | - |
| 1777434087 | 6.11° C | 58% | 1015.5 hPa | 0 mm | - | - | - |
| 1777433187 | 6.11° C | 56% | 1015.4 hPa | 0 mm | - | - | - |
| 1777432287 | 6.11° C | 55% | 1015.3 hPa | 0 mm | - | - | - |
| 1777430488 | 6.11° C | 54% | 1015.1 hPa | 0 mm | - | - | - |
| 1777429589 | 6.67° C | 53% | 1015.2 hPa | 0 mm | - | - | - |
| 1777428687 | 6.67° C | 52% | 1015.2 hPa | 0 mm | - | - | - |
| 1777426888 | 7.22° C | 49% | 1015.4 hPa | 0 mm | - | - | - |
| 1777423287 | 7.78° C | 44% | 1015.4 hPa | 0 mm | - | - | - |
| 1777422386 | 7.78° C | 45% | 1015.4 hPa | 0 mm | - | - | - |
| 1777420587 | 8.33° C | 44% | 1015.1 hPa | 0 mm | - | - | - |
| 1777419687 | 8.33° C | 44% | 1015.1 hPa | 0 mm | - | - | - |
* Rain latest hour (hover to see other rain measurements)
** Current wind speed in m/s (hover to see current wind gust speed)